createdAt,value
2023-04-30T00:00:06.000Z,85.36
2023-04-30T00:01:05.977Z,85.36
2023-04-30T00:02:05.997Z,85.57
2023-04-30T00:03:06.074Z,85.36
2023-04-30T00:04:06.013Z,85.06
2023-04-30T00:05:05.915Z,84.99
2023-04-30T00:06:05.960Z,84.69
2023-04-30T00:07:05.907Z,84.58
2023-04-30T00:08:05.881Z,84.89
2023-04-30T00:09:05.879Z,85.40
2023-04-30T00:10:05.863Z,85.30
2023-04-30T00:11:05.854Z,84.79
2023-04-30T00:12:05.844Z,85.10
2023-04-30T00:13:05.823Z,85.50
2023-04-30T00:14:05.798Z,85.61
2023-04-30T00:15:05.792Z,84.99
2023-04-30T00:16:05.824Z,84.99
2023-04-30T00:17:05.787Z,84.89
2023-04-30T00:18:05.815Z,84.38
2023-04-30T00:19:05.743Z,84.79
2023-04-30T00:20:05.722Z,84.89
2023-04-30T00:21:05.708Z,85.10
2023-04-30T00:22:05.727Z,85.30
2023-04-30T00:23:05.688Z,85.30
2023-04-30T00:24:05.670Z,85.40
2023-04-30T00:25:05.678Z,85.20
2023-04-30T00:26:05.645Z,85.10
2023-04-30T00:27:05.649Z,85.40
2023-04-30T00:28:05.618Z,85.20
2023-04-30T00:29:05.624Z,84.99
2023-04-30T00:30:05.600Z,85.61
2023-04-30T00:31:05.580Z,85.71
2023-04-30T00:32:05.594Z,85.91
2023-04-30T00:33:05.605Z,85.61
2023-04-30T00:34:05.529Z,85.91
2023-04-30T00:35:05.547Z,86.12
2023-04-30T00:36:05.516Z,86.53
2023-04-30T00:37:05.514Z,86.22
2023-04-30T00:38:05.495Z,86.02
2023-04-30T00:39:05.488Z,85.61
2023-04-30T00:40:05.461Z,85.71
2023-04-30T00:41:05.451Z,86.12
2023-04-30T00:42:05.453Z,86.53
2023-04-30T00:43:05.427Z,86.02
2023-04-30T00:44:05.410Z,85.91
2023-04-30T00:45:05.396Z,86.12
2023-04-30T00:46:05.422Z,86.05
2023-04-30T00:47:05.378Z,86.46
2023-04-30T00:48:05.393Z,86.57
2023-04-30T00:49:05.361Z,86.77
2023-04-30T00:50:05.343Z,86.98
2023-04-30T00:51:05.312Z,86.88
2023-04-30T00:52:05.310Z,86.88
2023-04-30T00:53:05.280Z,86.98
2023-04-30T00:54:05.272Z,86.36
2023-04-30T00:55:05.266Z,86.05
2023-04-30T00:56:05.249Z,86.36
2023-04-30T00:57:05.263Z,86.46
2023-04-30T00:58:05.230Z,86.57
2023-04-30T00:59:05.218Z,86.77
2023-04-30T01:00:05.201Z,86.46
2023-04-30T01:01:05.229Z,86.77
2023-04-30T01:02:05.246Z,86.46
2023-04-30T01:03:05.236Z,86.26
2023-04-30T01:04:05.146Z,86.16
2023-04-30T01:05:05.136Z,86.26
2023-04-30T01:06:05.142Z,86.36
2023-04-30T01:07:05.112Z,86.57
2023-04-30T01:08:05.097Z,86.88
2023-04-30T01:09:05.080Z,87.02
2023-04-30T01:10:05.057Z,87.22
2023-04-30T01:11:05.050Z,87.32
2023-04-30T01:12:05.052Z,86.81
2023-04-30T01:13:05.025Z,87.22
2023-04-30T01:14:05.010Z,87.12
2023-04-30T01:15:05.004Z,87.02
2023-04-30T01:16:05.021Z,86.91
2023-04-30T01:17:04.984Z,86.81
2023-04-30T01:18:05.001Z,87.12
2023-04-30T01:19:05.018Z,87.22
2023-04-30T01:20:04.934Z,87.43
2023-04-30T01:21:04.918Z,87.73
2023-04-30T01:22:04.929Z,87.73
2023-04-30T01:23:04.890Z,87.53
2023-04-30T01:24:04.871Z,87.43
2023-04-30T01:25:04.869Z,87.53
2023-04-30T01:26:04.848Z,87.73
2023-04-30T01:27:04.845Z,88.14
2023-04-30T01:28:04.857Z,88.14
2023-04-30T01:29:04.816Z,87.53
2023-04-30T01:30:04.808Z,87.53
2023-04-30T01:31:04.845Z,87.63
2023-04-30T01:32:04.777Z,87.73
2023-04-30T01:33:04.869Z,87.63
2023-04-30T01:34:04.763Z,87.63
2023-04-30T01:35:04.747Z,87.73
2023-04-30T01:36:04.711Z,87.73
2023-04-30T01:37:04.712Z,87.22
2023-04-30T01:38:04.704Z,87.43
2023-04-30T01:39:04.692Z,87.84
2023-04-30T01:40:04.684Z,87.84
2023-04-30T01:41:04.658Z,87.94
2023-04-30T01:42:04.651Z,88.04
2023-04-30T01:43:04.664Z,88.24
2023-04-30T01:44:04.617Z,88.45
2023-04-30T01:45:04.607Z,88.29
2023-04-30T01:46:04.608Z,88.45
2023-04-30T01:47:04.593Z,88.65
2023-04-30T01:48:04.767Z,88.65
2023-04-30T01:49:04.553Z,88.65
2023-04-30T01:50:04.538Z,88.49
2023-04-30T01:51:04.538Z,88.29
2023-04-30T01:52:04.517Z,88.39
2023-04-30T01:53:04.501Z,88.59
2023-04-30T01:54:04.486Z,88.70
2023-04-30T01:55:04.487Z,88.59
2023-04-30T01:56:04.478Z,88.49
2023-04-30T01:57:13.169Z,88.59
2023-04-30T01:58:04.431Z,88.90
2023-04-30T01:59:04.434Z,89.00
2023-04-30T02:00:04.405Z,89.00
2023-04-30T02:01:04.427Z,89.21
2023-04-30T02:02:04.394Z,88.70
2023-04-30T02:03:04.420Z,88.39
2023-04-30T02:04:04.686Z,88.70
2023-04-30T02:05:04.336Z,89.11
2023-04-30T02:06:04.409Z,89.11
2023-04-30T02:07:04.314Z,89.31
2023-04-30T02:08:04.332Z,89.42
2023-04-30T02:09:04.291Z,89.83
2023-04-30T02:10:04.275Z,89.92
2023-04-30T02:11:04.291Z,90.03
2023-04-30T02:12:04.252Z,90.13
2023-04-30T02:13:04.257Z,90.13
2023-04-30T02:14:04.237Z,90.03
2023-04-30T02:15:04.218Z,90.03
2023-04-30T02:16:04.218Z,90.23
2023-04-30T02:17:04.194Z,90.34
2023-04-30T02:18:04.192Z,90.28
2023-04-30T02:19:04.163Z,90.37
2023-04-30T02:20:04.141Z,90.44
2023-04-30T02:21:04.134Z,90.69
2023-04-30T02:22:04.119Z,90.48
2023-04-30T02:23:04.121Z,90.48
2023-04-30T02:24:04.099Z,90.79
2023-04-30T02:25:04.083Z,90.89
2023-04-30T02:26:04.071Z,90.89
2023-04-30T02:27:04.055Z,90.89
2023-04-30T02:28:04.050Z,90.89
2023-04-30T02:29:04.032Z,90.99
2023-04-30T02:30:04.012Z,91.20
2023-04-30T02:31:04.001Z,91.30
2023-04-30T02:32:04.103Z,91.30
2023-04-30T02:33:04.013Z,91.20
2023-04-30T02:34:03.954Z,91.09
2023-04-30T02:35:03.959Z,90.69
2023-04-30T02:36:03.944Z,90.58
2023-04-30T02:37:03.946Z,90.37
2023-04-30T02:38:03.940Z,90.28
2023-04-30T02:39:03.898Z,90.58
2023-04-30T02:40:03.893Z,90.79
2023-04-30T02:41:03.873Z,90.69
2023-04-30T02:42:03.869Z,90.99
2023-04-30T02:43:03.864Z,90.99
2023-04-30T02:44:03.832Z,91.20
2023-04-30T02:45:03.824Z,91.20
2023-04-30T02:46:03.888Z,91.09
2023-04-30T02:47:03.798Z,91.24
2023-04-30T02:48:03.821Z,91.03
2023-04-30T02:49:03.784Z,91.03
2023-04-30T02:50:03.744Z,91.35
2023-04-30T02:51:03.743Z,91.35
2023-04-30T02:52:03.715Z,91.44
2023-04-30T02:53:03.725Z,91.44
2023-04-30T02:54:03.697Z,91.24
2023-04-30T02:55:03.696Z,91.24
2023-04-30T02:56:03.682Z,91.24
2023-04-30T02:57:03.658Z,91.35
2023-04-30T02:58:03.656Z,91.44
2023-04-30T02:59:03.641Z,91.44
2023-04-30T03:00:03.614Z,91.03
2023-04-30T03:01:03.686Z,90.83
2023-04-30T03:02:03.619Z,90.73
2023-04-30T03:03:03.656Z,90.83
2023-04-30T03:04:03.571Z,91.14
2023-04-30T03:05:03.570Z,91.24
2023-04-30T03:06:03.583Z,91.14
2023-04-30T03:07:03.532Z,91.14
2023-04-30T03:08:03.537Z,91.14
2023-04-30T03:09:03.492Z,91.38
2023-04-30T03:10:03.489Z,91.49
2023-04-30T03:11:03.488Z,91.49
2023-04-30T03:12:03.458Z,91.69
2023-04-30T03:13:03.463Z,91.59
2023-04-30T03:14:03.433Z,91.59
2023-04-30T03:15:03.432Z,91.59
2023-04-30T03:16:03.438Z,91.69
2023-04-30T03:17:03.412Z,91.69
2023-04-30T03:18:03.423Z,91.80
2023-04-30T03:19:03.498Z,91.90
2023-04-30T03:20:03.362Z,91.90
2023-04-30T03:21:03.354Z,92.10
2023-04-30T03:22:03.341Z,92.31
2023-04-30T03:23:03.331Z,92.31
2023-04-30T03:24:03.324Z,92.31
2023-04-30T03:25:03.301Z,92.00
2023-04-30T03:26:03.288Z,92.10
2023-04-30T03:27:03.289Z,92.00
2023-04-30T03:28:03.271Z,91.90
2023-04-30T03:29:03.252Z,92.00
2023-04-30T03:30:03.239Z,92.10
2023-04-30T03:31:03.253Z,92.21
2023-04-30T03:32:03.287Z,92.21
2023-04-30T03:33:03.275Z,92.31
2023-04-30T03:34:03.178Z,92.41
2023-04-30T03:35:03.167Z,92.41
2023-04-30T03:36:03.150Z,92.41
2023-04-30T03:37:03.141Z,92.41
2023-04-30T03:38:03.149Z,92.51
2023-04-30T03:39:03.126Z,92.51
2023-04-30T03:40:03.100Z,92.51
2023-04-30T03:41:03.094Z,92.41
2023-04-30T03:42:03.068Z,92.31
2023-04-30T03:43:03.079Z,92.41
2023-04-30T03:44:03.074Z,92.41
2023-04-30T03:45:03.047Z,92.41
2023-04-30T03:46:03.090Z,92.31
2023-04-30T03:47:03.019Z,92.31
2023-04-30T03:48:03.060Z,92.31
2023-04-30T03:49:02.990Z,92.31
2023-04-30T04:02:41.265Z,92.72
2023-04-30T04:03:41.237Z,92.82
2023-04-30T04:04:41.218Z,92.82
2023-04-30T04:05:41.195Z,92.82
2023-04-30T04:06:41.282Z,92.93
2023-04-30T04:07:41.161Z,92.82
2023-04-30T04:08:41.168Z,92.72
2023-04-30T04:09:41.145Z,92.61
2023-04-30T04:10:41.146Z,92.51
2023-04-30T04:11:41.108Z,92.51
2023-04-30T04:12:41.107Z,92.66
2023-04-30T04:13:41.108Z,92.72
2023-04-30T04:14:41.098Z,92.72
2023-04-30T04:15:41.084Z,92.82
2023-04-30T04:16:41.105Z,92.72
2023-04-30T04:17:41.055Z,92.72
2023-04-30T04:18:41.036Z,92.76
2023-04-30T04:19:41.004Z,92.86
2023-04-30T04:20:41.001Z,92.86
2023-04-30T04:21:40.973Z,92.97
2023-04-30T04:22:40.987Z,92.97
2023-04-30T04:23:40.963Z,92.97
2023-04-30T04:24:40.945Z,93.07
2023-04-30T04:25:40.924Z,93.07
2023-04-30T04:26:40.919Z,93.02
2023-04-30T04:27:40.901Z,93.13
2023-04-30T04:28:40.919Z,93.23
2023-04-30T04:29:40.902Z,93.23
2023-04-30T04:30:40.886Z,93.23
2023-04-30T04:31:40.865Z,93.23
2023-04-30T04:32:40.847Z,93.23
2023-04-30T04:33:40.838Z,93.13
2023-04-30T04:34:40.820Z,93.13
2023-04-30T04:35:40.786Z,93.02
2023-04-30T04:36:40.811Z,93.02
2023-04-30T04:37:40.787Z,93.02
2023-04-30T04:38:40.773Z,93.02
2023-04-30T04:39:40.742Z,93.13
2023-04-30T04:40:40.730Z,93.23
2023-04-30T04:41:40.723Z,93.23
2023-04-30T04:42:40.713Z,93.23
2023-04-30T04:43:40.709Z,93.13
2023-04-30T04:44:40.683Z,93.13
2023-04-30T04:45:40.671Z,93.02
2023-04-30T04:46:40.763Z,93.02
2023-04-30T04:47:40.694Z,92.98
2023-04-30T04:48:40.632Z,93.08
2023-04-30T04:49:40.607Z,93.19
2023-04-30T04:50:40.609Z,93.19
2023-04-30T04:51:40.587Z,93.19
2023-04-30T04:52:40.581Z,93.08
2023-04-30T04:53:40.564Z,92.88
2023-04-30T04:54:40.566Z,92.88
2023-04-30T04:55:40.551Z,92.78
2023-04-30T04:56:40.541Z,92.68
2023-04-30T04:57:40.530Z,92.57
2023-04-30T04:58:40.520Z,92.53
2023-04-30T04:59:40.486Z,92.43
2023-04-30T05:00:40.479Z,92.43
2023-04-30T05:01:40.503Z,92.32
2023-04-30T05:02:40.549Z,92.22
2023-04-30T05:03:40.517Z,92.32
2023-04-30T05:04:40.434Z,92.22
2023-04-30T05:05:40.428Z,92.12
2023-04-30T05:06:40.480Z,92.02
2023-04-30T05:07:40.383Z,92.02
2023-04-30T05:08:40.383Z,91.91
2023-04-30T05:09:40.351Z,91.91
2023-04-30T05:10:40.355Z,91.87
2023-04-30T05:11:40.335Z,91.67
2023-04-30T05:12:40.327Z,91.56
2023-04-30T05:13:40.316Z,91.56
2023-04-30T05:14:40.305Z,91.46
2023-04-30T05:15:40.280Z,91.26
2023-04-30T05:16:40.456Z,91.05
2023-04-30T05:17:40.292Z,90.95
2023-04-30T05:18:40.271Z,91.05
2023-04-30T05:19:40.226Z,90.95
2023-04-30T05:20:40.219Z,90.81
2023-04-30T05:21:40.214Z,90.81
2023-04-30T05:22:40.204Z,90.70
2023-04-30T05:23:40.194Z,90.50
2023-04-30T05:24:40.173Z,90.50
2023-04-30T05:25:40.147Z,90.19
2023-04-30T05:26:40.150Z,90.30
2023-04-30T05:27:40.127Z,90.09
2023-04-30T05:28:40.120Z,90.09
2023-04-30T05:29:40.107Z,90.19
2023-04-30T05:30:40.085Z,90.19
2023-04-30T05:31:40.137Z,89.89
2023-04-30T05:32:40.117Z,89.78
2023-04-30T05:33:40.071Z,89.64
2023-04-30T05:34:40.043Z,89.74
2023-04-30T05:35:40.032Z,89.74
2023-04-30T05:36:40.305Z,89.43
2023-04-30T05:37:39.989Z,89.43
2023-04-30T05:38:40.009Z,89.33
2023-04-30T05:39:39.976Z,89.33
2023-04-30T05:40:39.953Z,89.18
2023-04-30T05:41:39.951Z,88.98
2023-04-30T05:42:39.931Z,88.78
2023-04-30T05:43:39.934Z,88.57
2023-04-30T05:44:39.911Z,88.47
2023-04-30T05:45:39.911Z,88.47
2023-04-30T05:46:39.879Z,88.17
2023-04-30T05:47:39.876Z,87.96
2023-04-30T05:48:39.856Z,87.76
2023-04-30T05:49:39.858Z,87.51
2023-04-30T05:50:39.835Z,87.51
2023-04-30T05:51:39.821Z,87.41
2023-04-30T05:52:39.825Z,87.30
2023-04-30T05:53:39.810Z,87.41
2023-04-30T05:54:39.802Z,87.51
2023-04-30T05:55:39.770Z,86.90
2023-04-30T05:56:39.766Z,86.49
2023-04-30T05:57:39.755Z,86.38
2023-04-30T05:58:39.744Z,86.29
2023-04-30T05:59:39.735Z,86.49
2023-04-30T06:00:39.706Z,86.38
2023-04-30T06:01:39.760Z,86.29
2023-04-30T06:02:39.765Z,86.18
2023-04-30T06:03:39.676Z,85.97
2023-04-30T06:04:39.672Z,85.77
2023-04-30T06:05:39.699Z,85.36
2023-04-30T06:06:39.679Z,85.16
2023-04-30T06:07:39.633Z,85.32
2023-04-30T06:08:39.606Z,85.12
2023-04-30T06:09:39.599Z,84.91
2023-04-30T06:10:39.575Z,84.91
2023-04-30T06:11:42.307Z,85.02
2023-04-30T06:12:39.547Z,84.81
2023-04-30T06:13:39.554Z,84.30
2023-04-30T06:14:39.530Z,84.00
2023-04-30T06:15:39.534Z,83.59
2023-04-30T06:16:39.536Z,83.48
2023-04-30T06:17:39.547Z,83.38
2023-04-30T06:18:39.491Z,82.93
2023-04-30T06:19:39.464Z,83.14
2023-04-30T06:20:39.474Z,83.24
2023-04-30T06:21:39.433Z,83.24
2023-04-30T06:22:39.422Z,83.34
2023-04-30T06:23:39.420Z,83.14
2023-04-30T06:24:39.431Z,82.63
2023-04-30T06:25:39.390Z,82.22
2023-04-30T06:26:39.437Z,82.01
2023-04-30T06:27:39.366Z,81.60
2023-04-30T06:28:39.368Z,81.81
2023-04-30T06:29:39.343Z,81.67
2023-04-30T06:30:39.359Z,81.46
2023-04-30T06:31:39.461Z,81.46
2023-04-30T06:32:39.318Z,82.08
2023-04-30T06:33:39.369Z,81.98
2023-04-30T06:34:39.353Z,80.96
2023-04-30T06:35:39.257Z,81.16
2023-04-30T06:36:39.258Z,81.84
2023-04-30T06:37:39.222Z,81.23
2023-04-30T06:38:39.223Z,81.12
2023-04-30T06:39:39.225Z,80.00
2023-04-30T06:40:39.185Z,79.80
2023-04-30T06:41:39.182Z,79.80
2023-04-30T06:42:39.167Z,80.00
2023-04-30T06:43:39.153Z,79.69
2023-04-30T06:44:39.152Z,79.49
2023-04-30T06:45:39.450Z,79.59
2023-04-30T06:46:39.255Z,79.59
2023-04-30T06:47:39.127Z,80.30
2023-04-30T06:48:39.089Z,80.07
2023-04-30T06:49:39.083Z,79.49
2023-04-30T06:50:39.073Z,79.55
2023-04-30T06:51:39.046Z,79.45
2023-04-30T06:52:39.037Z,79.66
2023-04-30T06:53:39.023Z,79.55
2023-04-30T06:54:39.040Z,79.55
2023-04-30T06:55:39.013Z,79.25
2023-04-30T06:56:38.994Z,79.45
2023-04-30T06:57:38.971Z,79.45
2023-04-30T06:58:38.985Z,79.45
2023-04-30T06:59:38.951Z,79.55
2023-04-30T07:00:38.952Z,79.55
2023-04-30T07:01:39.040Z,79.25
2023-04-30T07:02:38.987Z,78.80
2023-04-30T07:03:38.999Z,78.91
2023-04-30T07:04:38.891Z,78.70
2023-04-30T07:05:38.878Z,78.80
2023-04-30T07:06:38.948Z,78.60
2023-04-30T07:07:38.851Z,78.09
2023-04-30T07:08:38.828Z,78.70
2023-04-30T07:09:38.822Z,77.89
2023-04-30T07:10:38.816Z,77.58
2023-04-30T07:11:38.862Z,77.85
2023-04-30T07:12:38.796Z,77.95
2023-04-30T07:13:38.783Z,77.64
2023-04-30T07:14:38.762Z,77.44
2023-04-30T07:15:38.814Z,77.64
2023-04-30T07:16:38.719Z,77.20
2023-04-30T07:17:38.744Z,77.10
2023-04-30T07:18:38.692Z,76.69
2023-04-30T07:19:38.694Z,75.98
2023-04-30T07:20:38.693Z,76.39
2023-04-30T07:21:38.667Z,75.67
2023-04-30T07:22:38.652Z,75.47
2023-04-30T07:23:38.656Z,76.59
2023-04-30T07:24:38.621Z,76.28
2023-04-30T07:25:38.631Z,74.86
2023-04-30T07:26:38.621Z,74.65
2023-04-30T07:27:38.640Z,75.37
2023-04-30T07:28:38.581Z,75.84
2023-04-30T07:29:38.553Z,75.43
2023-04-30T07:30:38.572Z,75.64
2023-04-30T07:31:38.537Z,75.54
2023-04-30T07:32:38.661Z,75.84
2023-04-30T07:33:38.500Z,75.95
2023-04-30T07:34:38.481Z,74.72
2023-04-30T07:35:38.477Z,74.79
2023-04-30T07:36:38.471Z,74.79
2023-04-30T07:37:40.466Z,74.79
2023-04-30T07:38:38.443Z,74.48
2023-04-30T07:39:38.428Z,74.79
2023-04-30T07:40:38.418Z,74.28
2023-04-30T07:41:38.406Z,72.96
2023-04-30T07:42:38.390Z,73.47
2023-04-30T07:43:38.376Z,72.62
2023-04-30T07:44:38.356Z,73.33
2023-04-30T07:45:38.371Z,73.33
2023-04-30T07:46:38.421Z,73.23
2023-04-30T07:47:38.360Z,72.82
2023-04-30T07:48:38.310Z,73.43
2023-04-30T07:49:38.301Z,73.54
2023-04-30T07:50:38.300Z,72.92
2023-04-30T07:51:38.273Z,73.13
2023-04-30T07:52:38.259Z,72.72
2023-04-30T07:53:38.257Z,72.08
2023-04-30T07:54:38.292Z,71.77
2023-04-30T07:55:38.236Z,71.67
2023-04-30T07:56:38.206Z,71.67
2023-04-30T07:57:38.198Z,72.28
2023-04-30T07:58:38.179Z,71.67
2023-04-30T07:59:38.183Z,71.94
2023-04-30T08:00:38.159Z,71.53
2023-04-30T08:01:38.249Z,70.01
2023-04-30T08:02:38.325Z,69.81
2023-04-30T08:03:38.242Z,69.70
2023-04-30T08:04:38.118Z,70.11
2023-04-30T08:05:38.091Z,70.31
2023-04-30T08:06:38.103Z,70.11
2023-04-30T08:07:38.066Z,70.21
2023-04-30T08:08:38.071Z,68.76
2023-04-30T08:09:38.053Z,68.96
2023-04-30T08:10:38.022Z,68.96
2023-04-30T08:11:38.038Z,68.12
2023-04-30T08:12:38.016Z,66.80
2023-04-30T08:13:38.003Z,66.69
2023-04-30T08:14:37.990Z,66.69
2023-04-30T08:15:37.962Z,66.29
2023-04-30T08:16:38.020Z,65.65
2023-04-30T08:17:37.974Z,65.75
2023-04-30T08:18:37.931Z,66.05
2023-04-30T08:19:37.934Z,65.55
2023-04-30T08:20:38.637Z,65.42
2023-04-30T08:21:37.906Z,64.50
2023-04-30T08:22:37.876Z,64.91
2023-04-30T08:23:37.868Z,65.62
2023-04-30T08:24:37.854Z,66.23
2023-04-30T08:25:37.848Z,64.30
2023-04-30T08:26:37.842Z,64.50
2023-04-30T08:27:37.812Z,64.50
2023-04-30T08:28:37.801Z,63.89
2023-04-30T08:29:37.796Z,66.02
2023-04-30T08:30:37.785Z,65.62
2023-04-30T08:31:37.868Z,66.02
2023-04-30T08:32:37.865Z,65.31
2023-04-30T08:33:37.737Z,65.18
2023-04-30T08:34:37.740Z,64.88
2023-04-30T08:35:37.700Z,65.59
2023-04-30T08:36:37.707Z,65.48
2023-04-30T08:37:37.691Z,64.78
2023-04-30T08:38:37.692Z,63.76
2023-04-30T08:39:37.667Z,64.44
2023-04-30T08:40:50.928Z,63.23
2023-04-30T08:41:38.651Z,64.34
2023-04-30T08:42:37.620Z,63.70
2023-04-30T08:43:37.603Z,63.30
2023-04-30T08:44:37.587Z,62.59
2023-04-30T08:45:37.583Z,62.59
2023-04-30T08:46:37.796Z,62.38
2023-04-30T08:47:37.571Z,61.58
2023-04-30T08:48:37.540Z,60.94
2023-04-30T08:49:37.531Z,61.04
2023-04-30T08:50:37.504Z,62.26
2023-04-30T08:51:37.514Z,62.15
2023-04-30T08:52:37.487Z,62.23
2023-04-30T08:53:37.479Z,62.84
2023-04-30T08:54:37.459Z,60.78
2023-04-30T08:55:37.443Z,61.08
2023-04-30T08:56:37.445Z,61.59
2023-04-30T08:57:37.429Z,59.64
2023-04-30T08:58:37.407Z,58.93
2023-04-30T08:59:37.415Z,57.18
2023-04-30T09:00:37.374Z,59.31
2023-04-30T09:01:37.417Z,58.27
2023-04-30T09:02:37.424Z,56.65
2023-04-30T09:03:37.583Z,58.07
2023-04-30T09:04:37.326Z,57.74
2023-04-30T09:05:37.312Z,56.32
2023-04-30T09:06:37.332Z,56.32
2023-04-30T09:07:37.712Z,56.20
2023-04-30T09:08:37.261Z,55.29
2023-04-30T09:09:37.277Z,55.39
2023-04-30T09:10:37.243Z,56.20
2023-04-30T09:11:37.248Z,55.19
2023-04-30T09:12:37.208Z,54.89
2023-04-30T09:13:37.212Z,55.19
2023-04-30T09:14:37.201Z,54.51
2023-04-30T09:15:37.229Z,55.04
2023-04-30T09:16:37.180Z,55.04
2023-04-30T09:17:37.161Z,55.36
2023-04-30T09:18:37.181Z,55.87
2023-04-30T09:19:37.267Z,55.80
2023-04-30T09:20:37.111Z,55.09
2023-04-30T09:21:37.157Z,55.02
2023-04-30T09:22:37.093Z,56.63
2023-04-30T09:23:37.082Z,58.23
2023-04-30T09:24:37.067Z,58.15
2023-04-30T09:25:37.049Z,56.71
2023-04-30T09:26:37.060Z,57.42
2023-04-30T09:27:37.048Z,57.42
2023-04-30T09:28:37.007Z,58.53
2023-04-30T09:29:37.020Z,58.23
2023-04-30T09:30:36.981Z,58.93
2023-04-30T09:31:37.105Z,58.05
2023-04-30T09:32:37.016Z,57.92
2023-04-30T09:33:36.952Z,57.14
2023-04-30T09:34:36.942Z,56.84
2023-04-30T09:35:36.934Z,57.44
2023-04-30T09:36:36.939Z,56.15
2023-04-30T09:37:36.907Z,57.67
2023-04-30T09:38:36.884Z,58.76
2023-04-30T09:39:36.889Z,58.58
2023-04-30T09:40:36.865Z,56.73
2023-04-30T09:41:36.852Z,57.85
2023-04-30T09:42:36.852Z,57.04
2023-04-30T09:43:36.823Z,54.91
2023-04-30T09:44:36.808Z,55.42
2023-04-30T09:45:36.829Z,56.23
2023-04-30T09:46:36.819Z,55.93
2023-04-30T10:02:46.937Z,51.38
2023-04-30T10:03:46.935Z,54.99
2023-04-30T10:04:46.872Z,53.67
2023-04-30T10:05:46.863Z,50.13
2023-04-30T10:06:46.928Z,53.85
2023-04-30T10:07:46.856Z,50.45
2023-04-30T10:08:46.854Z,50.96
2023-04-30T10:09:46.828Z,52.26
2023-04-30T10:10:46.818Z,49.77
2023-04-30T10:11:46.782Z,51.28
2023-04-30T10:12:46.813Z,52.29
2023-04-30T10:13:46.757Z,52.17
2023-04-30T10:14:46.768Z,52.57
2023-04-30T10:15:46.734Z,52.67
2023-04-30T10:16:46.758Z,52.97
2023-04-30T10:17:46.798Z,51.93
2023-04-30T10:18:46.713Z,51.23
2023-04-30T10:19:47.834Z,52.37
2023-04-30T10:20:46.675Z,50.15
2023-04-30T10:21:46.658Z,50.65
2023-04-30T10:22:46.661Z,51.56
2023-04-30T10:23:46.623Z,50.96
2023-04-30T10:24:46.630Z,51.66
2023-04-30T10:25:46.605Z,49.95
2023-04-30T10:26:46.592Z,52.17
2023-04-30T10:27:46.591Z,54.08
2023-04-30T10:28:46.579Z,53.55
2023-04-30T10:29:46.547Z,52.54
2023-04-30T10:30:46.538Z,52.82
2023-04-30T10:31:46.585Z,52.22
2023-04-30T10:32:46.526Z,53.52
2023-04-30T10:33:46.517Z,53.52
2023-04-30T10:34:46.528Z,54.91
2023-04-30T10:35:46.478Z,52.29
2023-04-30T10:36:46.462Z,53.07
2023-04-30T10:37:46.449Z,51.86
2023-04-30T10:38:48.415Z,49.76
2023-04-30T10:39:46.435Z,48.75
2023-04-30T10:40:46.420Z,51.44
2023-04-30T10:41:46.394Z,51.84
2023-04-30T10:42:46.406Z,51.14
2023-04-30T10:43:46.358Z,48.02
2023-04-30T10:44:46.440Z,48.63
2023-04-30T10:45:46.395Z,50.61
2023-04-30T10:46:46.325Z,48.70
2023-04-30T10:47:46.340Z,48.40
2023-04-30T10:48:46.314Z,49.48
2023-04-30T10:49:46.296Z,50.09
2023-04-30T10:50:46.454Z,48.35
2023-04-30T10:51:46.264Z,48.55
2023-04-30T10:52:46.265Z,47.75
2023-04-30T10:53:46.269Z,46.85
2023-04-30T10:54:46.259Z,46.97
2023-04-30T10:55:46.218Z,46.87
2023-04-30T10:56:46.217Z,46.07
2023-04-30T10:57:46.203Z,47.27
2023-04-30T10:58:46.183Z,50.09
2023-04-30T10:59:46.168Z,49.05
2023-04-30T11:00:46.150Z,48.75
2023-04-30T11:01:46.192Z,48.23
2023-04-30T11:02:46.269Z,46.35
2023-04-30T11:03:46.116Z,45.37
2023-04-30T11:04:46.168Z,45.39
2023-04-30T11:05:46.083Z,46.72
2023-04-30T11:06:46.172Z,46.03
2023-04-30T11:07:46.079Z,46.41
2023-04-30T11:08:46.145Z,47.30
2023-04-30T11:09:46.044Z,47.39
2023-04-30T11:10:46.057Z,47.07
2023-04-30T11:11:46.003Z,45.87
2023-04-30T11:12:46.036Z,47.55
2023-04-30T11:13:45.987Z,47.43
2023-04-30T11:14:45.975Z,48.73
2023-04-30T11:15:46.064Z,45.83
2023-04-30T11:16:45.987Z,46.15
2023-04-30T11:17:45.976Z,46.25
2023-04-30T11:18:45.943Z,47.43
2023-04-30T11:19:45.902Z,47.83
2023-04-30T11:20:45.903Z,44.64
2023-04-30T11:21:45.895Z,43.92
2023-04-30T11:22:45.878Z,46.30
2023-04-30T11:23:45.884Z,47.50
2023-04-30T11:24:45.847Z,45.98
2023-04-30T11:25:45.846Z,45.08
2023-04-30T11:26:45.842Z,45.00
2023-04-30T11:27:45.834Z,45.53
2023-04-30T11:28:45.830Z,44.14
2023-04-30T11:29:45.799Z,46.55
2023-04-30T11:30:45.788Z,45.47
2023-04-30T11:31:45.794Z,44.79
2023-04-30T11:32:45.814Z,46.37
2023-04-30T11:33:45.749Z,45.34
2023-04-30T11:34:45.736Z,45.04
2023-04-30T11:35:45.722Z,45.32
2023-04-30T11:36:46.889Z,44.70
2023-04-30T11:37:45.726Z,45.78
2023-04-30T11:38:45.687Z,43.27
2023-04-30T11:39:45.718Z,45.56
2023-04-30T11:40:45.669Z,43.84
2023-04-30T11:41:45.653Z,42.83
2023-04-30T11:42:46.502Z,44.32
2023-04-30T11:43:45.717Z,43.09
2023-04-30T11:44:45.623Z,43.09
2023-04-30T11:45:45.590Z,41.89
2023-04-30T11:46:45.606Z,43.01
2023-04-30T11:47:45.733Z,42.11
2023-04-30T11:48:45.581Z,43.49
2023-04-30T11:49:45.562Z,43.79
2023-04-30T11:50:45.534Z,39.09
2023-04-30T11:51:45.530Z,40.30
2023-04-30T11:52:45.513Z,43.57
2023-04-30T11:53:45.503Z,41.80
2023-04-30T11:54:45.478Z,40.39
2023-04-30T11:55:45.569Z,42.32
2023-04-30T11:56:45.465Z,41.39
2023-04-30T11:57:45.448Z,41.99
2023-04-30T11:58:45.433Z,43.27
2023-04-30T11:59:45.420Z,45.05
2023-04-30T12:00:45.421Z,43.43
2023-04-30T12:01:45.403Z,42.54
2023-04-30T12:02:45.485Z,39.86
2023-04-30T12:03:45.456Z,41.08
2023-04-30T12:04:45.345Z,42.40
2023-04-30T12:05:45.328Z,40.23
2023-04-30T12:06:45.432Z,41.05
2023-04-30T12:07:45.315Z,40.07
2023-04-30T12:08:45.300Z,41.39
2023-04-30T12:09:45.282Z,44.90
2023-04-30T12:10:45.274Z,45.18
2023-04-30T12:11:45.258Z,42.55
2023-04-30T12:12:45.254Z,44.35
2023-04-30T12:13:45.234Z,42.76
2023-04-30T12:14:45.215Z,45.06
2023-04-30T12:15:45.204Z,44.35
2023-04-30T12:16:49.789Z,42.85
2023-04-30T12:17:45.221Z,40.97
2023-04-30T12:18:45.157Z,43.30
2023-04-30T12:19:45.148Z,43.60
2023-04-30T12:20:45.226Z,40.67
2023-04-30T12:21:45.107Z,41.19
2023-04-30T12:22:45.129Z,42.18
2023-04-30T12:23:45.131Z,43.88
2023-04-30T12:24:45.088Z,43.10
2023-04-30T12:25:45.081Z,42.97
2023-04-30T12:26:45.078Z,42.05
2023-04-30T12:27:45.054Z,42.76
2023-04-30T12:28:45.042Z,42.96
2023-04-30T12:29:45.014Z,44.35
2023-04-30T12:30:45.014Z,41.25
2023-04-30T12:31:45.052Z,40.87
2023-04-30T12:32:45.112Z,45.28
2023-04-30T12:33:44.971Z,42.19
2023-04-30T12:34:44.956Z,41.91
2023-04-30T12:35:44.950Z,42.24
2023-04-30T12:36:44.960Z,42.16
2023-04-30T12:37:44.946Z,42.68
2023-04-30T12:38:44.920Z,43.98
2023-04-30T12:39:44.899Z,44.51
2023-04-30T12:40:44.886Z,44.31
2023-04-30T12:41:44.893Z,45.71
2023-04-30T12:42:44.861Z,44.71
2023-04-30T12:43:44.851Z,44.63
2023-04-30T12:44:44.821Z,44.53
2023-04-30T12:45:44.878Z,44.75
2023-04-30T12:46:44.876Z,45.05
2023-04-30T12:47:44.826Z,44.24
2023-04-30T12:48:44.782Z,46.46
2023-04-30T12:49:44.761Z,45.01
2023-04-30T12:50:44.751Z,45.47
2023-04-30T12:51:44.737Z,45.04
2023-04-30T12:52:46.333Z,44.00
2023-04-30T12:53:44.733Z,43.46
2023-04-30T12:54:44.748Z,44.06
2023-04-30T12:55:44.704Z,42.07
2023-04-30T12:56:44.672Z,41.77
2023-04-30T12:57:44.664Z,41.79
2023-04-30T12:58:44.683Z,42.60
2023-04-30T12:59:44.654Z,42.52
2023-04-30T13:00:44.639Z,42.41
2023-04-30T13:01:44.677Z,41.91
2023-04-30T13:02:44.650Z,41.60
2023-04-30T13:03:44.681Z,43.77
2023-04-30T13:04:44.579Z,42.83
2023-04-30T13:05:44.565Z,42.41
2023-04-30T13:06:44.623Z,41.38
2023-04-30T13:07:44.548Z,41.33
2023-04-30T13:08:57.096Z,41.31
2023-04-30T13:09:45.499Z,39.70
2023-04-30T13:10:44.508Z,38.78
2023-04-30T13:11:44.483Z,39.36
2023-04-30T13:12:44.532Z,38.86
2023-04-30T13:13:44.504Z,39.08
2023-04-30T13:14:44.436Z,37.70
2023-04-30T13:15:44.620Z,38.32
2023-04-30T13:16:44.452Z,37.16
2023-04-30T13:17:44.497Z,39.15
2023-04-30T13:18:44.442Z,41.03
2023-04-30T13:19:44.380Z,40.32